Time;durP1;ratioP1;P1;durP2;ratioP2;P2;SDS_P1;SDS_P2;PMS_P1;PMS_P2;Temp;Humidity;BMP_temperature;BMP_pressure;BME280_temperature;BME280_humidity;BME280_pressure;Samples;Min_cycle;Max_cycle;Signal;HPM_P1;HPM_P2
2023/01/13 00:02:40;;;;;;;;;;;;;;;10.29;90.10;100129.94;21083174;28;19939;-58
2023/01/13 00:13:02;;;;;;;;;;;;;;;10.33;91.79;100134.06;21081507;28;19924;-59
2023/01/13 00:23:25;;;;;;;;;;;;;;;10.38;91.64;100133.88;21078776;28;19932;-58
2023/01/13 00:33:47;;;;;;;;;;;;;;;10.45;90.51;100149.09;21074722;28;19942;-58
2023/01/13 00:44:09;;;;;;;;;;;;;;;10.41;90.24;100147.53;21058280;28;20034;-59
2023/01/13 00:54:30;;;;;;;;;;;;;;;10.42;88.57;100131.09;21087046;28;20264;-59
2023/01/13 01:04:52;;;;;;;;;;;;;;;10.37;88.89;100142.53;21079791;28;19939;-60
2023/01/13 01:15:13;;;;;;;;;;;;;;;10.22;89.06;100153.50;21073700;28;19934;-60
2023/01/13 01:25:35;;;;;;;;;;;;;;;10.10;89.57;100160.00;21054423;28;20374;-60
2023/01/13 01:35:56;;;;;;;;;;;;;;;10.07;89.23;100162.66;21055436;28;19934;-59
2023/01/13 01:46:18;;;;;;;;;;;;;;;9.97;84.71;100171.66;21057430;28;19935;-59
2023/01/13 01:56:41;;;;;;;;;;;;;;;9.87;84.47;100162.59;21072948;28;19962;-59
2023/01/13 02:07:03;;;;;;;;;;;;;;;9.74;84.28;100182.84;21066237;28;20442;-59
2023/01/13 02:17:24;;;;;;;;;;;;;;;9.57;86.30;100174.91;21064790;28;20398;-59
2023/01/13 02:27:46;;;;;;;;;;;;;;;9.46;85.93;100171.00;21067226;28;20306;-59
2023/01/13 02:38:10;;;;;;;;;;;;;;;9.41;86.33;100172.94;21071002;28;19936;-59
2023/01/13 02:48:33;;;;;;;;;;;;;;;9.47;85.59;100168.38;21067138;28;20355;-60
2023/01/13 02:58:56;;;;;;;;;;;;;;;9.42;86.04;100185.78;21075462;28;20362;-60
2023/01/13 03:09:28;;;;;;;;;;;;;;;9.36;86.49;100170.50;21080227;28;19940;-59
2023/01/13 03:19:50;;;;;;;;;;;;;;;9.31;85.92;100153.47;21094498;28;19928;-59
2023/01/13 03:30:26;;;;;;;;;;;;;;;9.26;85.26;100157.97;21080507;28;19928;-60
2023/01/13 03:40:50;;;;;;;;;;;;;;;9.34;84.24;100140.50;21065968;28;21648;-60
2023/01/13 03:51:15;;;;;;;;;;;;;;;9.22;83.65;100146.91;21079371;28;19935;-59
2023/01/13 04:01:37;;;;;;;;;;;;;;;9.14;84.41;100152.34;21062024;28;20337;-59
2023/01/13 04:12:06;;;;;;;;;;;;;;;9.07;84.82;100127.66;21083486;28;19932;-60
2023/01/13 04:22:27;;;;;;;;;;;;;;;9.03;84.79;100102.84;21078059;28;19997;-60
2023/01/13 04:32:48;;;;;;;;;;;;;;;9.16;83.45;100120.50;21069518;27;19950;-59
2023/01/13 04:43:10;;;;;;;;;;;;;;;9.05;84.20;100098.47;21083139;28;19924;-60
2023/01/13 04:53:32;;;;;;;;;;;;;;;9.07;84.32;100106.16;21080691;28;19924;-60
2023/01/13 05:03:53;;;;;;;;;;;;;;;9.05;84.11;100098.47;21088561;28;19931;-59
2023/01/13 05:35:39;;;;;;;;;;;;;;;9.21;83.43;100087.63;21080145;22;19950;-60
2023/01/13 05:46:02;;;;;;;;;;;;;;;9.35;82.46;100087.94;20950806;28;19924;-62
2023/01/13 05:56:23;;;;;;;;;;;;;;;9.38;80.66;100095.56;21037644;28;19924;-61
2023/01/13 06:06:45;;;;;;;;;;;;;;;9.16;82.18;100092.09;21030350;28;19928;-62
2023/01/13 06:17:10;;;;;;;;;;;;;;;9.14;82.50;100092.13;21029697;28;19989;-62
2023/01/13 06:27:33;;;;;;;;;;;;;;;9.03;82.49;100110.59;21037596;28;19950;-62
2023/01/13 06:37:56;;;;;;;;;;;;;;;9.01;82.56;100102.06;21022480;28;19935;-62
2023/01/13 06:48:20;;;;;;;;;;;;;;;9.09;81.37;100099.22;21048094;28;19924;-62
2023/01/13 06:58:42;;;;;;;;;;;;;;;9.03;82.09;100105.44;21046634;28;20792;-62
2023/01/13 07:09:03;;;;;;;;;;;;;;;8.97;82.46;100100.47;21045654;28;19924;-61
2023/01/13 07:19:27;;;;;;;;;;;;;;;9.05;81.83;100088.16;21042343;28;20006;-61
2023/01/13 07:29:48;;;;;;;;;;;;;;;9.05;81.17;100083.00;21017387;28;19977;-62
2023/01/13 07:40:11;;;;;;;;;;;;;;;9.07;80.62;100094.09;21026337;28;20330;-61
2023/01/13 07:50:32;;;;;;;;;;;;;;;9.08;80.49;100080.28;21051585;28;19928;-62
2023/01/13 08:00:54;;;;;;;;;;;;;;;9.12;79.42;100092.19;21042855;28;19986;-62
2023/01/13 08:11:16;;;;;;;;;;;;;;;9.20;78.99;100080.75;21033857;28;19934;-62
2023/01/13 08:21:37;;;;;;;;;;;;;;;9.17;78.93;100101.53;21040883;28;19928;-62
2023/01/13 08:31:58;;;;;;;;;;;;;;;9.13;78.81;100099.06;21042795;28;20378;-62
2023/01/13 08:42:20;;;;;;;;;;;;;;;9.24;78.29;100109.00;21039007;28;19997;-62
2023/01/13 08:52:41;;;;;;;;;;;;;;;9.23;79.10;100116.78;21036885;28;19931;-62
2023/01/13 09:03:03;;;;;;;;;;;;;;;9.26;78.42;100103.75;21039132;28;19977;-62
2023/01/13 09:13:25;;;;;;;;;;;;;;;9.32;77.89;100124.22;21037816;28;19974;-62
2023/01/13 09:23:47;;;;;;;;;;;;;;;9.38;79.37;100148.03;21038570;28;19924;-61
2023/01/13 09:45:04;;;;;;;;;;;;;;;8.91;82.69;100167.78;21046231;28;19928;-62
2023/01/13 09:55:29;;;;;;;;;;;;;;;8.83;84.07;100185.25;21046528;28;20370;-62
2023/01/13 10:05:55;;;;;;;;;;;;;;;8.84;83.83;100171.47;21037018;28;20409;-61
2023/01/13 10:16:28;;;;;;;;;;;;;;;8.78;84.91;100166.50;21037534;28;19950;-62
2023/01/13 10:26:57;;;;;;;;;;;;;;;8.83;84.80;100174.09;21050144;28;20290;-61
2023/01/13 10:37:24;;;;;;;;;;;;;;;9.02;84.00;100168.28;21065280;28;19924;-61
2023/01/13 10:48:02;;;;;;;;;;;;;;;9.06;84.38;100180.16;21048191;28;19928;-61
2023/01/13 10:58:23;;;;;;;;;;;;;;;8.98;85.09;100174.44;21044902;28;19928;-62
2023/01/13 11:08:47;;;;;;;;;;;;;;;9.04;84.87;100192.28;21051923;28;19932;-61
2023/01/13 11:19:14;;;;;;;;;;;;;;;8.92;85.97;100192.69;21038601;28;20451;-62
2023/01/13 11:30:02;;;;;;;;;;;;;;;8.92;86.37;100192.69;21053315;28;19973;-61
2023/01/13 11:40:27;;;;;;;;;;;;;;;8.79;87.40;100230.09;21024255;28;19924;-61
2023/01/13 11:51:07;;;;;;;;;;;;;;;8.69;88.43;100212.41;21045002;28;20554;-61
2023/01/13 12:01:28;;;;;;;;;;;;;;;8.76;87.73;100219.88;21033100;28;20378;-62
2023/01/13 12:12:26;;;;;;;;;;;;;;;8.96;85.86;100227.81;21038053;28;19931;-62
2023/01/13 12:22:50;;;;;;;;;;;;;;;8.94;86.03;100221.84;21077239;22;20583;-58
2023/01/13 12:33:18;;;;;;;;;;;;;;;8.94;86.21;100229.59;21120301;27;19968;-56
2023/01/13 12:54:27;;;;;;;;;;;;;;;8.79;88.40;100235.25;21071735;28;19931;-57
2023/01/13 13:04:51;;;;;;;;;;;;;;;8.96;86.50;100245.88;21074917;28;20014;-57
2023/01/13 13:15:20;;;;;;;;;;;;;;;9.09;86.00;100229.09;21075205;28;19929;-58
2023/01/13 13:25:57;;;;;;;;;;;;;;;9.17;85.62;100251.22;21067920;28;19924;-58
2023/01/13 13:36:38;;;;;;;;;;;;;;;9.14;86.14;100247.84;21053825;28;20844;-57
2023/01/13 13:47:03;;;;;;;;;;;;;;;9.27;85.19;100263.75;21072649;28;19930;-57
2023/01/13 13:57:33;;;;;;;;;;;;;;;9.21;85.55;100289.75;21081486;28;19924;-58
2023/01/13 14:07:58;;;;;;;;;;;;;;;9.18;86.16;100294.19;21085929;28;19989;-57
2023/01/13 14:18:20;;;;;;;;;;;;;;;9.18;85.27;100327.75;21056819;28;19928;-58
2023/01/13 14:28:42;;;;;;;;;;;;;;;9.14;84.77;100345.91;21073623;28;19928;-57
2023/01/13 14:39:03;;;;;;;;;;;;;;;8.82;88.29;100368.47;21074372;28;19924;-57
2023/01/13 14:49:25;;;;;;;;;;;;;;;8.72;89.45;100367.03;21069560;28;19935;-57
2023/01/13 14:59:50;;;;;;;;;;;;;;;8.77;88.74;100360.84;21072757;28;19936;-57
2023/01/13 15:10:13;;;;;;;;;;;;;;;8.72;88.69;100383.38;21073398;28;19923;-57
2023/01/13 15:20:34;;;;;;;;;;;;;;;8.86;87.54;100393.28;21084553;28;19928;-57
2023/01/13 15:30:59;;;;;;;;;;;;;;;8.98;85.86;100411.81;21088308;28;19978;-57
2023/01/13 15:46:36;;;;;;;;;;;;;;;9.02;85.30;100415.16;21060765;28;19939;-57
2023/01/13 15:52:15;;;;;;;;;;;;;;;9.00;84.47;100441.00;21075233;27;19977;-57
2023/01/13 16:02:37;;;;;;;;;;;;;;;9.14;84.07;100459.50;21081746;28;19928;-57
2023/01/13 16:12:58;;;;;;;;;;;;;;;9.22;82.80;100455.81;21082161;28;20399;-56
2023/01/13 16:23:20;;;;;;;;;;;;;;;9.25;82.61;100518.53;21081628;28;19932;-57
2023/01/13 16:33:41;;;;;;;;;;;;;;;9.15;83.09;100519.72;21086814;28;19997;-57
2023/01/13 16:44:04;;;;;;;;;;;;;;;8.97;82.15;100564.94;21080703;28;20272;-57
2023/01/13 16:54:26;;;;;;;;;;;;;;;8.52;85.18;100566.16;21079691;28;20325;-57
2023/01/13 17:04:47;;;;;;;;;;;;;;;8.82;86.67;100596.34;21066090;28;20007;-56
2023/01/13 17:15:13;;;;;;;;;;;;;;;8.66;87.06;100620.81;21065199;28;19927;-57
2023/01/13 17:25:35;;;;;;;;;;;;;;;7.85;88.71;100644.22;21073125;28;19973;-56
2023/01/13 17:35:56;;;;;;;;;;;;;;;7.29;91.00;100672.03;21080935;28;19924;-57
2023/01/13 17:46:18;;;;;;;;;;;;;;;7.26;91.91;100682.34;21069988;28;19931;-57
2023/01/13 17:56:42;;;;;;;;;;;;;;;7.59;92.30;100686.84;21073290;28;20423;-58
2023/01/13 18:07:05;;;;;;;;;;;;;;;7.81;91.70;100703.56;21079072;28;20007;-56
2023/01/13 18:17:26;;;;;;;;;;;;;;;8.03;90.63;100710.81;21067004;28;20617;-56
2023/01/13 18:27:47;;;;;;;;;;;;;;;8.11;89.68;100718.38;21069167;28;20002;-56
2023/01/13 18:38:13;;;;;;;;;;;;;;;8.12;89.94;100736.38;21082333;28;19924;-57
2023/01/13 18:48:34;;;;;;;;;;;;;;;8.20;88.90;100759.41;21079849;28;19966;-57
2023/01/13 18:58:56;;;;;;;;;;;;;;;8.17;89.99;100768.94;21084179;28;20378;-57
2023/01/13 19:09:19;;;;;;;;;;;;;;;8.24;89.90;100799.72;21065352;28;20370;-57
2023/01/13 19:19:44;;;;;;;;;;;;;;;8.29;90.10;100817.66;21083704;28;20551;-56
2023/01/13 19:30:06;;;;;;;;;;;;;;;8.22;92.26;100823.81;21081985;28;19928;-57
2023/01/13 19:40:28;;;;;;;;;;;;;;;8.20;92.62;100812.69;21083366;28;19928;-56
2023/01/13 19:50:49;;;;;;;;;;;;;;;8.24;92.45;100866.72;21083639;28;19985;-57
2023/01/13 20:01:14;;;;;;;;;;;;;;;8.29;91.89;100889.84;21052050;28;19940;-57
2023/01/13 20:11:36;;;;;;;;;;;;;;;8.41;90.83;100907.63;21068474;28;19924;-57
2023/01/13 20:21:57;;;;;;;;;;;;;;;8.38;91.41;100913.72;21069395;28;19956;-58
2023/01/13 20:32:19;;;;;;;;;;;;;;;8.44;90.20;100960.00;21062864;28;20611;-57
2023/01/13 20:42:43;;;;;;;;;;;;;;;8.40;90.43;100960.94;21062197;22;19931;-60
2023/01/13 20:53:05;;;;;;;;;;;;;;;8.44;90.37;100990.09;21132077;27;20371;-60
2023/01/13 21:03:27;;;;;;;;;;;;;;;8.40;89.68;100989.31;21101044;27;20573;-60
2023/01/13 21:24:28;;;;;;;;;;;;;;;8.32;90.70;101060.78;21104586;27;20415;-59
2023/01/13 21:34:49;;;;;;;;;;;;;;;8.19;91.24;101041.19;21069075;27;20310;-60
2023/01/13 21:55:51;;;;;;;;;;;;;;;8.27;90.69;101066.88;21090193;28;19979;-60
2023/01/13 22:06:12;;;;;;;;;;;;;;;8.19;91.00;101095.31;21087217;27;20299;-60
2023/01/13 22:16:37;;;;;;;;;;;;;;;8.17;90.81;101114.28;21112094;27;19930;-60
2023/01/13 22:26:59;;;;;;;;;;;;;;;8.14;90.15;101117.75;21106116;27;20325;-60
2023/01/13 22:37:20;;;;;;;;;;;;;;;8.03;90.00;101141.13;21096651;27;20329;-60
2023/01/13 22:47:42;;;;;;;;;;;;;;;7.98;89.97;101166.06;21126451;27;20003;-61
2023/01/13 22:58:03;;;;;;;;;;;;;;;7.90;90.46;101169.63;21120892;27;19981;-60
2023/01/13 23:08:24;;;;;;;;;;;;;;;7.85;90.73;101168.88;21119897;27;19973;-60
2023/01/13 23:18:47;;;;;;;;;;;;;;;7.88;90.74;101179.09;21098125;27;19935;-61
2023/01/13 23:29:10;;;;;;;;;;;;;;;7.87;91.80;101182.56;21096288;27;20102;-60
2023/01/13 23:39:31;;;;;;;;;;;;;;;7.91;90.70;101204.84;21092153;27;19927;-61
2023/01/13 23:49:52;;;;;;;;;;;;;;;7.95;90.68;101191.03;21110223;27;19935;-61
